Time;durP1;ratioP1;P1;durP2;ratioP2;P2;SDS_P1;SDS_P2;PMS_P1;PMS_P2;Temp;Humidity;BMP_temperature;BMP_pressure;BME280_temperature;BME280_humidity;BME280_pressure;Samples;Min_cycle;Max_cycle;Signal;HPM_P1;HPM_P2
2022/11/22 00:00:24;;;;;;;9.23;5.20;;;;;;;6.00;100.00;99125.53;5072996;28;20538;-35
2022/11/22 00:02:50;;;;;;;10.48;4.93;;;;;;;6.06;100.00;99127.28;5073228;28;20376;-35
2022/11/22 00:05:16;;;;;;;10.25;4.90;;;;;;;6.07;100.00;99135.06;5073821;28;20028;-35
2022/11/22 00:07:41;;;;;;;;;;;;;;;6.12;100.00;99143.22;5072532;28;20060;-35
2022/11/22 00:10:10;;;;;;;9.60;4.93;;;;;;;6.10;100.00;99137.28;5073055;28;19935;-35
2022/11/22 00:12:35;;;;;;;7.93;5.30;;;;;;;6.12;100.00;99131.66;5071642;28;20303;-35
2022/11/22 00:15:01;;;;;;;8.82;4.70;;;;;;;6.12;100.00;99132.47;5073283;28;20457;-35
2022/11/22 00:17:26;;;;;;;10.43;4.70;;;;;;;6.13;100.00;99130.59;5073326;28;20475;-35
2022/11/22 00:19:51;;;;;;;8.60;4.40;;;;;;;6.13;100.00;99133.28;5073253;28;20345;-34
2022/11/22 00:22:17;;;;;;;8.33;4.80;;;;;;;6.13;100.00;99126.03;5073743;28;20062;-34
2022/11/22 00:24:45;;;;;;;8.63;4.97;;;;;;;6.12;100.00;99135.16;5073408;28;20035;-34
2022/11/22 00:27:10;;;;;;;8.90;5.20;;;;;;;6.15;100.00;99133.88;5072869;28;20033;-35
2022/11/22 00:29:36;;;;;;;7.60;4.28;;;;;;;6.15;100.00;99133.88;5073342;28;20543;-34
2022/11/22 00:32:01;;;;;;;12.00;5.43;;;;;;;6.14;100.00;99124.16;5076918;28;20064;-35
2022/11/22 00:34:26;;;;;;;10.10;4.73;;;;;;;6.15;100.00;99123.94;5076680;28;20141;-35
2022/11/22 00:36:51;;;;;;;9.03;4.20;;;;;;;6.15;100.00;99126.63;5076881;28;20103;-35
2022/11/22 00:39:17;;;;;;;12.87;4.47;;;;;;;6.14;100.00;99124.97;5077080;28;20028;-35
2022/11/22 00:41:42;;;;;;;12.77;3.83;;;;;;;6.17;100.00;99123.69;5075524;28;20035;-35
2022/11/22 00:44:07;;;;;;;7.60;3.87;;;;;;;6.18;100.00;99130.69;5076571;28;20072;-35
2022/11/22 00:46:33;;;;;;;8.97;3.90;;;;;;;6.10;100.00;99123.03;5076529;28;20029;-35
2022/11/22 00:48:58;;;;;;;9.23;3.33;;;;;;;6.17;100.00;99139.78;5077228;28;20028;-35
2022/11/22 00:51:23;;;;;;;7.93;3.40;;;;;;;6.19;100.00;99126.94;5076636;28;20051;-34
2022/11/22 00:53:48;;;;;;;7.50;3.50;;;;;;;6.18;100.00;99128.00;5077167;28;20046;-35
2022/11/22 00:56:14;;;;;;;9.07;3.43;;;;;;;6.19;100.00;99121.56;5077034;28;20074;-35
2022/11/22 00:58:39;;;;;;;10.13;3.60;;;;;;;6.16;100.00;99128.25;5076391;28;20032;-35
2022/11/22 01:01:04;;;;;;;7.87;3.37;;;;;;;6.15;100.00;99118.56;5076101;28;20038;-35
2022/11/22 01:03:30;;;;;;;6.73;3.33;;;;;;;6.08;100.00;99114.41;5076395;28;20038;-35
2022/11/22 01:05:55;;;;;;;8.60;3.63;;;;;;;6.13;100.00;99125.22;5076295;28;20028;-35
2022/11/22 01:08:20;;;;;;;7.50;3.50;;;;;;;6.07;100.00;99120.84;5075830;28;20044;-35
2022/11/22 01:10:47;;;;;;;7.13;2.95;;;;;;;6.02;100.00;99107.34;5076399;28;20378;-35
2022/11/22 01:13:12;;;;;;;6.67;3.00;;;;;;;5.89;100.00;99090.47;5076307;28;20054;-35
2022/11/22 01:15:38;;;;;;;6.53;2.87;;;;;;;6.05;100.00;99125.63;5076163;28;20056;-35
2022/11/22 01:18:03;;;;;;;8.00;3.17;;;;;;;6.03;100.00;99125.06;5075873;28;20028;-35
2022/11/22 01:20:29;;;;;;;9.37;3.40;;;;;;;5.97;100.00;99118.00;5076112;28;20545;-35
2022/11/22 01:22:55;;;;;;;5.90;2.60;;;;;;;6.00;100.00;99130.91;5076364;28;20639;-35
2022/11/22 01:25:21;;;;;;;7.90;3.40;;;;;;;5.94;100.00;99130.81;5074726;28;20101;-35
2022/11/22 01:27:46;;;;;;;6.97;3.07;;;;;;;5.93;100.00;99144.50;5076753;28;20037;-34
2022/11/22 01:30:12;;;;;;;6.38;2.80;;;;;;;5.90;100.00;99143.09;5076289;28;20036;-35
2022/11/22 01:32:37;;;;;;;9.17;2.60;;;;;;;5.86;100.00;99138.44;5075827;28;20043;-35
2022/11/22 01:35:03;;;;;;;11.03;4.27;;;;;;;5.83;100.00;99126.31;5075853;28;20267;-35
2022/11/22 01:37:28;;;;;;;8.63;3.05;;;;;;;5.80;100.00;99132.16;5075954;28;20023;-35
2022/11/22 01:39:53;;;;;;;9.50;3.47;;;;;;;5.78;100.00;99136.94;5075992;28;20134;-35
2022/11/22 01:42:19;;;;;;;8.77;2.97;;;;;;;5.75;100.00;99132.06;5075510;28;20362;-35
2022/11/22 01:44:47;;;;;;;6.37;3.13;;;;;;;5.74;100.00;99133.13;5075628;28;20036;-35
2022/11/22 01:47:22;;;;;;;9.88;3.03;;;;;;;5.65;100.00;99135.38;5075833;28;20020;-35
2022/11/22 01:50:03;;;;;;;9.77;3.60;;;;;;;5.67;100.00;99149.38;5075877;28;20056;-35
2022/11/22 01:52:33;;;;;;;10.23;2.58;;;;;;;5.65;100.00;99153.34;5075908;28;20427;-35
2022/11/22 01:55:11;;;;;;;11.90;2.85;;;;;;;5.65;100.00;99154.16;5075992;28;20016;-35
2022/11/22 01:57:39;;;;;;;10.07;3.53;;;;;;;5.42;100.00;99122.09;5076115;28;20059;-35
2022/11/22 02:00:08;;;;;;;8.98;2.60;;;;;;;5.57;100.00;99153.75;5075614;28;20028;-35
2022/11/22 02:02:34;;;;;;;8.95;2.50;;;;;;;5.63;100.00;99166.19;5075006;28;20103;-35
2022/11/22 02:05:04;;;;;;;10.25;2.95;;;;;;;5.59;100.00;99165.03;5075095;28;20037;-35
2022/11/22 02:07:59;;;;;;;9.85;2.75;;;;;;;5.61;100.00;99165.59;5075189;28;20106;-35
2022/11/22 02:10:27;;;;;;;14.85;3.90;;;;;;;5.57;100.00;99161.78;5032892;28;20053;-34
2022/11/22 02:12:56;;;;;;;8.95;2.78;;;;;;;5.49;100.00;99160.28;5033007;28;20609;-35
2022/11/22 02:15:22;;;;;;;10.55;3.60;;;;;;;5.53;100.00;99161.44;5033042;28;20041;-34
2022/11/22 02:17:47;;;;;;;11.38;3.10;;;;;;;5.55;100.00;99179.97;5032845;28;20034;-35
2022/11/22 02:20:15;;;;;;;13.77;3.10;;;;;;;5.53;100.00;99174.03;5032702;28;20477;-35
2022/11/22 02:23:05;;;;;;;10.55;2.90;;;;;;;5.54;100.00;99172.97;5032747;28;20116;-35
2022/11/22 02:25:39;;;;;;;13.57;3.50;;;;;;;5.54;100.00;99167.59;5032617;28;20489;-35
2022/11/22 02:28:06;;;;;;;10.05;2.80;;;;;;;5.49;100.00;99164.84;5033258;28;20585;-35
2022/11/22 02:30:31;;;;;;;13.57;2.50;;;;;;;5.43;100.00;99156.69;5032670;28;20374;-35
2022/11/22 02:32:57;;;;;;;8.70;2.83;;;;;;;5.51;100.00;99173.44;5032853;28;20045;-35
2022/11/22 02:35:24;;;;;;;8.57;2.58;;;;;;;5.44;100.00;99165.53;5032813;28;20041;-35
2022/11/22 02:38:29;;;;;;;11.15;2.85;;;;;;;5.50;100.00;99177.19;5032339;28;20437;-35
2022/11/22 02:41:08;;;;;;;12.23;2.60;;;;;;;5.46;100.00;99178.69;4954856;29;20122;-35
2022/11/22 02:43:37;;;;;;;11.30;2.92;;;;;;;5.43;100.00;99177.31;4955065;29;20412;-35
2022/11/22 02:46:08;;;;;;;13.52;3.45;;;;;;;5.45;100.00;99182.44;4954347;29;20039;-35
2022/11/22 02:48:40;;;;;;;14.45;2.97;;;;;;;5.43;100.00;99188.06;5012742;28;20037;-35
2022/11/22 02:51:05;;;;;;;14.02;2.97;;;;;;;5.37;100.00;99173.75;5012476;28;20085;-35
2022/11/22 02:53:30;;;;;;;12.30;2.40;;;;;;;5.37;100.00;99173.75;5011822;28;20065;-35
2022/11/22 02:55:56;;;;;;;13.93;2.60;;;;;;;5.43;100.00;99194.22;5012256;28;20499;-35
2022/11/22 02:58:21;;;;;;;12.20;2.83;;;;;;;5.41;100.00;99196.31;5012736;28;20045;-35
2022/11/22 03:00:47;;;;;;;14.83;3.17;;;;;;;5.39;100.00;99189.56;5012512;28;20148;-35
2022/11/22 03:03:12;;;;;;;11.13;2.80;;;;;;;5.35;100.00;99197.25;5012176;28;20030;-35
2022/11/22 03:05:37;;;;;;;16.33;4.07;;;;;;;5.33;100.00;99193.22;5012165;28;20069;-35
2022/11/22 03:08:02;;;;;;;12.80;3.00;;;;;;;5.30;100.00;99188.31;5012702;28;20100;-35
2022/11/22 03:10:28;;;;;;;9.23;3.07;;;;;;;5.31;100.00;99193.44;5011995;28;20045;-35
2022/11/22 03:12:56;;;;;;;12.77;4.00;;;;;;;5.27;100.00;99189.63;4995452;28;20033;-35
2022/11/22 03:15:21;;;;;;;9.95;2.20;;;;;;;5.26;100.00;99189.81;5012024;28;20029;-35
2022/11/22 03:17:46;;;;;;;17.93;3.70;;;;;;;5.23;100.00;99193.81;5059636;28;20420;-35
2022/11/22 03:20:12;;;;;;;13.97;3.40;;;;;;;5.23;100.00;99203.72;5073743;28;20099;-35
2022/11/22 03:22:37;;;;;;;10.75;2.75;;;;;;;5.19;100.00;99208.72;5074203;28;20421;-35
2022/11/22 03:25:03;;;;;;;13.83;2.63;;;;;;;5.18;100.00;99211.66;5073503;28;20033;-35
2022/11/22 03:27:28;;;;;;;11.88;3.13;;;;;;;5.14;100.00;99208.63;5055468;28;20123;-36
2022/11/22 03:29:54;;;;;;;10.57;2.40;;;;;;;5.01;100.00;99198.16;5074246;28;20024;-35
2022/11/22 03:32:19;;;;;;;11.40;2.73;;;;;;;5.11;100.00;99222.47;5073348;28;20484;-34
2022/11/22 03:34:44;;;;;;;11.63;2.87;;;;;;;5.09;100.00;99213.88;5073688;28;20128;-35
2022/11/22 03:37:10;;;;;;;12.20;2.37;;;;;;;5.09;100.00;99219.22;5074063;28;20082;-35
2022/11/22 03:39:35;;;;;;;12.63;2.73;;;;;;;5.03;100.00;99215.63;5073826;28;20286;-35
2022/11/22 03:42:00;;;;;;;13.87;2.90;;;;;;;5.02;100.00;99219.34;5073623;28;20054;-35
2022/11/22 03:44:26;;;;;;;9.83;2.30;;;;;;;4.99;100.00;99216.31;5073177;28;20480;-35
2022/11/22 03:46:51;;;;;;;13.77;3.70;;;;;;;4.99;100.00;99224.38;5072501;28;20043;-35
2022/11/22 03:49:16;;;;;;;9.33;2.80;;;;;;;4.98;100.00;99218.19;5074208;28;20024;-35
2022/11/22 03:51:42;;;;;;;11.83;2.73;;;;;;;4.97;100.00;99231.81;5073602;28;20116;-35
2022/11/22 03:54:08;;;;;;;13.20;2.58;;;;;;;4.83;100.00;99218.66;5073320;28;20111;-35
2022/11/22 03:56:33;;;;;;;10.93;3.08;;;;;;;4.84;100.00;99228.31;5073281;28;20429;-35
2022/11/22 03:58:59;;;;;;;11.43;2.43;;;;;;;4.89;100.00;99231.13;5073193;28;20457;-35
2022/11/22 04:01:24;;;;;;;9.90;2.13;;;;;;;4.81;100.00;99226.09;5073978;28;20415;-35
2022/11/22 04:03:51;;;;;;;11.77;2.40;;;;;;;4.82;100.00;99233.09;5073725;28;20024;-35
2022/11/22 04:06:16;;;;;;;11.95;3.05;;;;;;;4.81;100.00;99228.78;5073031;28;20025;-35
2022/11/22 04:08:41;;;;;;;8.27;2.67;;;;;;;4.78;100.00;99223.91;5074166;28;20078;-35
2022/11/22 04:11:07;;;;;;;18.23;2.90;;;;;;;4.81;100.00;99230.66;5073434;28;20082;-35
2022/11/22 04:16:16;;;;;;;14.65;3.08;;;;;;;4.75;100.00;99229.72;5073057;28;20035;-35
2022/11/22 04:18:41;;;;;;;14.57;3.67;;;;;;;4.72;100.00;99240.06;5073765;28;20032;-35
2022/11/22 04:25:12;;;;;;;8.82;2.33;;;;;;;4.60;100.00;99240.06;5073120;28;20448;-35
2022/11/22 04:26:35;;;;;;;12.73;3.55;;;;;;;4.64;100.00;99250.09;5072667;28;20040;-35
2022/11/22 04:29:01;;;;;;;9.30;2.30;;;;;;;4.56;100.00;99246.94;5072921;28;20123;-34
2022/11/22 04:34:10;;;;;;;13.77;2.67;;;;;;;4.56;100.00;99247.75;5072913;28;20035;-34
2022/11/22 04:36:36;;;;;;;8.27;2.40;;;;;;;4.56;100.00;99249.59;5072618;28;20459;-34
2022/11/22 04:39:01;;;;;;;10.27;2.37;;;;;;;4.48;100.00;99234.69;5073040;28;20286;-34
2022/11/22 04:41:26;;;;;;;17.20;4.07;;;;;;;4.51;100.00;99244.13;5072445;28;20533;-34
2022/11/22 04:46:35;;;;;;;10.68;2.65;;;;;;;4.42;100.00;99250.84;5072987;28;20047;-34
2022/11/22 04:49:01;;;;;;;10.90;3.30;;;;;;;4.44;100.00;99262.13;5072759;28;20033;-34
2022/11/22 04:54:21;;;;;;;11.65;2.35;;;;;;;4.35;100.00;99246.44;5070919;28;20029;-34
2022/11/22 04:56:46;;;;;;;12.43;2.97;;;;;;;4.35;100.00;99254.44;5037479;28;20028;-35
2022/11/22 04:59:12;;;;;;;11.80;2.67;;;;;;;4.38;100.00;99262.00;5070873;28;20374;-37
2022/11/22 05:01:37;;;;;;;15.63;3.07;;;;;;;4.33;100.00;99263.75;5070153;28;20024;-34
2022/11/22 05:04:02;;;;;;;13.37;2.50;;;;;;;4.38;100.00;99264.69;5070403;28;20041;-34
2022/11/22 05:06:28;;;;;;;11.93;2.63;;;;;;;4.35;100.00;99267.03;5070439;28;20477;-34
2022/11/22 05:08:53;;;;;;;13.57;2.83;;;;;;;4.26;100.00;99271.88;5070482;28;20098;-34
2022/11/22 05:11:19;;;;;;;9.63;2.47;;;;;;;4.25;100.00;99274.78;5070216;28;20036;-35
2022/11/22 05:13:44;;;;;;;14.13;3.13;;;;;;;4.22;100.00;99272.56;5070162;28;20750;-35
2022/11/22 05:16:12;;;;;;;11.93;2.77;;;;;;;4.19;100.00;99268.47;5071366;28;20039;-35
2022/11/22 05:18:38;;;;;;;10.80;2.40;;;;;;;4.16;100.00;99265.44;5073963;28;20036;-35
2022/11/22 05:21:08;;;;;;;8.38;2.17;;;;;;;4.17;100.00;99264.41;5073708;28;20486;-35
2022/11/22 05:26:17;;;;;;;13.82;3.67;;;;;;;4.12;100.00;99273.91;5074038;28;20559;-34
2022/11/22 05:28:43;;;;;;;8.23;2.55;;;;;;;4.12;100.00;99267.75;5074280;28;20037;-34
2022/11/22 05:31:11;;;;;;;7.93;2.40;;;;;;;4.09;100.00;99262.84;5075214;28;20064;-35
2022/11/22 05:33:38;;;;;;;10.32;2.45;;;;;;;4.08;100.00;99272.75;5076363;28;20044;-35
2022/11/22 05:36:04;;;;;;;7.13;2.10;;;;;;;4.07;100.00;99275.66;5075725;28;20035;-35
2022/11/22 05:38:30;;;;;;;11.32;3.10;;;;;;;4.07;100.00;99270.28;5075974;28;20107;-35
2022/11/22 05:40:55;;;;;;;9.23;2.83;;;;;;;4.06;100.00;99268.66;5075625;28;20483;-35
2022/11/22 05:43:20;;;;;;;10.53;2.57;;;;;;;4.01;100.00;99255.97;5076304;28;20496;-35
2022/11/22 05:45:46;;;;;;;7.17;2.00;;;;;;;3.99;100.00;99257.22;5075735;28;20116;-35
2022/11/22 05:48:11;;;;;;;10.37;3.20;;;;;;;4.00;100.00;99270.41;5075509;28;20111;-35
2022/11/22 05:50:36;;;;;;;8.47;2.47;;;;;;;3.99;100.00;99263.38;5075637;28;20028;-35
2022/11/22 05:53:02;;;;;;;11.47;2.50;;;;;;;3.98;100.00;99267.13;5075996;28;20056;-35
2022/11/22 05:55:29;;;;;;;11.55;2.40;;;;;;;3.97;100.00;99265.50;5075565;28;20273;-33
2022/11/22 05:57:57;;;;;;;8.30;2.88;;;;;;;3.99;100.00;99266.06;5075565;28;20036;-34
2022/11/22 06:00:23;;;;;;;7.28;2.10;;;;;;;3.97;100.00;99262.81;5075496;28;20025;-34
2022/11/22 06:02:48;;;;;;;6.53;2.05;;;;;;;4.02;100.00;99259.47;5074210;28;20107;-34
2022/11/22 06:05:14;;;;;;;12.80;2.70;;;;;;;4.00;100.00;99258.84;5075420;28;20020;-34
2022/11/22 06:07:39;;;;;;;12.30;2.57;;;;;;;3.91;100.00;99257.56;5075565;28;20143;-34
2022/11/22 06:10:05;;;;;;;10.98;2.20;;;;;;;3.99;100.00;99268.75;5075099;28;20549;-35
2022/11/22 06:12:30;;;;;;;8.00;2.80;;;;;;;3.92;100.00;99267.22;5073817;28;20082;-34
2022/11/22 06:14:55;;;;;;;10.00;2.40;;;;;;;3.99;100.00;99278.63;5075243;28;20115;-34
2022/11/22 06:17:21;;;;;;;7.37;1.87;;;;;;;3.96;100.00;99273.75;5076147;28;20111;-34
2022/11/22 06:19:46;;;;;;;11.60;2.27;;;;;;;3.97;100.00;99281.53;5075460;28;20384;-34
2022/11/22 06:22:11;;;;;;;12.27;2.23;;;;;;;3.96;100.00;99276.44;5075261;28;20449;-34
2022/11/22 06:24:37;;;;;;;8.83;1.97;;;;;;;3.92;100.00;99267.22;5075097;28;20024;-34
2022/11/22 06:27:02;;;;;;;8.07;1.93;;;;;;;3.93;100.00;99271.50;5075128;28;20025;-34
2022/11/22 06:29:28;;;;;;;7.40;1.77;;;;;;;3.96;100.00;99276.44;5074863;28;20032;-34
2022/11/22 06:31:53;;;;;;;;;;;;;;;4.01;100.00;99281.91;5075693;28;20043;-34
2022/11/22 06:34:19;;;;;;;7.00;2.07;;;;;;;3.96;100.00;99279.09;5074854;28;20401;-34
2022/11/22 06:36:45;;;;;;;7.97;2.10;;;;;;;3.96;100.00;99281.78;5074799;28;20134;-34
2022/11/22 06:39:10;;;;;;;;;;;;;;;4.00;100.00;99280.25;5074304;28;20033;-34
2022/11/22 06:41:37;;;;;;;10.25;2.75;;;;;;;3.93;100.00;99274.19;5074364;28;19919;-34
2022/11/22 06:44:06;;;;;;;10.88;2.53;;;;;;;3.87;100.00;99284.75;5075354;28;20035;-34
2022/11/22 06:46:33;;;;;;;11.05;2.15;;;;;;;3.87;100.00;99289.28;5074809;28;20028;-34
2022/11/22 06:48:58;;;;;;;;;;;;;;;3.92;100.00;99293.97;5074707;28;20060;-35
2022/11/22 06:51:26;;;;;;;8.57;2.65;;;;;;;3.88;100.00;99294.41;5074686;28;20320;-34
2022/11/22 06:53:53;;;;;;;11.30;2.40;;;;;;;3.94;100.00;99299.88;5075040;28;20112;-34
2022/11/22 06:56:27;;;;;;;10.20;2.25;;;;;;;3.94;100.00;99298.03;5074210;28;20024;-34
2022/11/22 06:58:53;;;;;;;10.95;2.50;;;;;;;3.98;100.00;99309.09;5074543;28;20097;-34
2022/11/22 07:01:20;;;;;;;8.77;1.85;;;;;;;4.01;100.00;99303.31;5074524;28;20096;-34
2022/11/22 07:03:46;;;;;;;12.85;2.60;;;;;;;4.02;100.00;99310.28;5074388;28;20037;-34
2022/11/22 07:06:12;;;;;;;7.65;2.35;;;;;;;3.99;100.00;99300.84;5074095;28;20055;-34
2022/11/22 07:08:39;;;;;;;8.05;2.35;;;;;;;4.00;100.00;99307.84;5072511;28;20057;-34
2022/11/22 07:11:12;;;;;;;8.15;2.65;;;;;;;4.03;100.00;99310.06;5074084;28;20039;-35
2022/11/22 07:13:38;;;;;;;9.98;3.10;;;;;;;4.12;100.00;99323.94;5074732;28;20028;-34
2022/11/22 07:16:06;;;;;;;7.82;2.15;;;;;;;4.00;100.00;99301.66;5074493;28;20391;-34
2022/11/22 07:18:32;;;;;;;8.48;2.25;;;;;;;4.16;100.00;99317.09;5072652;28;20110;-34
2022/11/22 07:21:02;;;;;;;9.20;2.42;;;;;;;4.12;100.00;99299.84;5074673;28;20032;-34
2022/11/22 07:23:28;;;;;;;8.60;2.10;;;;;;;4.19;100.00;99321.16;5074134;28;20119;-34
2022/11/22 07:25:53;;;;;;;9.57;3.13;;;;;;;4.20;100.00;99307.56;5072448;28;20071;-34
2022/11/22 07:28:18;;;;;;;9.73;2.23;;;;;;;4.23;100.00;99317.81;5074210;28;20071;-34
2022/11/22 07:30:44;;;;;;;7.47;2.53;;;;;;;4.25;100.00;99321.09;5072696;28;20036;-34
2022/11/22 07:33:09;;;;;;;7.77;2.37;;;;;;;4.26;100.00;99316.56;5073535;28;20044;-34
2022/11/22 07:35:35;;;;;;;9.50;2.97;;;;;;;4.25;100.00;99323.78;5073683;28;20074;-34
2022/11/22 07:38:00;;;;;;;9.38;2.10;;;;;;;4.24;100.00;99330.13;5074045;28;20024;-34
2022/11/22 07:40:26;;;;;;;8.20;2.38;;;;;;;4.28;100.00;99327.84;5073447;28;20021;-34
2022/11/22 07:42:51;;;;;;;8.90;2.05;;;;;;;4.29;100.00;99327.59;5074313;28;20058;-34
2022/11/22 07:45:17;;;;;;;6.00;1.93;;;;;;;4.30;100.00;99323.91;5073479;28;20072;-34
2022/11/22 07:47:42;;;;;;;12.07;2.17;;;;;;;4.28;100.00;99323.28;5073247;28;20027;-34
2022/11/22 07:50:08;;;;;;;8.40;1.87;;;;;;;4.30;100.00;99321.22;5073026;28;20059;-35
2022/11/22 07:52:33;;;;;;;5.80;1.95;;;;;;;4.36;100.00;99325.66;5072981;28;20070;-34
2022/11/22 07:54:59;;;;;;;6.67;1.63;;;;;;;4.38;100.00;99326.25;5073676;28;20112;-34
2022/11/22 07:57:24;;;;;;;7.45;2.10;;;;;;;4.41;100.00;99321.50;5073239;28;20040;-34
2022/11/22 07:59:50;;;;;;;9.50;2.40;;;;;;;4.38;100.00;99318.22;5072725;28;20531;-34
2022/11/22 08:02:15;;;;;;;10.07;2.87;;;;;;;4.44;100.00;99323.69;5073107;28;20395;-34
2022/11/22 08:04:40;;;;;;;9.03;2.80;;;;;;;4.48;100.00;99327.56;5073223;28;20036;-34
2022/11/22 08:07:06;;;;;;;7.27;2.10;;;;;;;4.49;100.00;99323.81;5073434;28;20101;-34
2022/11/22 08:09:31;;;;;;;11.73;2.90;;;;;;;4.52;100.00;99326.88;5073451;28;20028;-35
2022/11/22 08:11:56;;;;;;;11.03;2.30;;;;;;;4.44;100.00;99313.00;5072980;28;20085;-35
2022/11/22 08:14:22;;;;;;;7.53;2.53;;;;;;;4.53;100.00;99325.00;5073582;28;20481;-35
2022/11/22 08:16:48;;;;;;;9.25;2.30;;;;;;;4.53;100.00;99328.50;5073625;28;20029;-34
2022/11/22 08:19:16;;;;;;;8.18;1.88;;;;;;;4.57;100.00;99332.34;5073009;28;20024;-35
2022/11/22 08:21:42;;;;;;;7.15;2.10;;;;;;;4.58;100.00;99338.53;5072791;28;20036;-35
2022/11/22 08:24:08;;;;;;;;;;;;;;;4.65;100.00;99336.59;5074251;28;20115;-35
2022/11/22 08:26:34;;;;;;;6.17;1.67;;;;;;;4.65;100.00;99333.91;5072978;28;20004;-35
2022/11/22 08:28:59;;;;;;;7.85;2.05;;;;;;;4.71;100.00;99332.16;5072868;28;20032;-35
2022/11/22 08:31:25;;;;;;;5.93;1.80;;;;;;;4.72;100.00;99334.59;5073573;28;20035;-35
2022/11/22 08:33:52;;;;;;;8.02;1.77;;;;;;;4.72;100.00;99325.75;5072926;28;20251;-35
2022/11/22 08:36:18;;;;;;;12.18;3.28;;;;;;;4.76;100.00;99337.66;5072808;28;20553;-35
2022/11/22 08:38:43;;;;;;;9.93;2.13;;;;;;;4.64;100.00;99322.38;5073054;28;20119;-35
2022/11/22 08:41:09;;;;;;;7.77;1.80;;;;;;;4.79;100.00;99343.38;5072579;28;20362;-35
2022/11/22 08:43:35;;;;;;;5.93;1.92;;;;;;;4.80;100.00;99342.31;5072845;28;20281;-35
2022/11/22 08:46:01;;;;;;;6.05;1.92;;;;;;;4.74;100.00;99339.75;5072446;28;20033;-34
2022/11/22 08:48:28;;;;;;;5.88;1.50;;;;;;;4.83;100.00;99344.53;5073285;28;20522;-34
2022/11/22 08:50:58;;;;;;;8.00;1.80;;;;;;;4.88;100.00;99344.66;5073472;28;20025;-34
2022/11/22 08:53:24;;;;;;;6.70;1.70;;;;;;;4.90;100.00;99347.91;5076498;28;20032;-34
2022/11/22 08:55:50;;;;;;;7.93;1.80;;;;;;;4.95;100.00;99347.22;5076538;28;20017;-35
2022/11/22 08:58:16;;;;;;;8.05;1.77;;;;;;;5.00;100.00;99335.81;5077274;28;20384;-35
2022/11/22 09:00:41;;;;;;;5.82;1.95;;;;;;;5.04;100.00;99339.69;5075340;28;20537;-35
2022/11/22 09:03:06;;;;;;;10.47;2.77;;;;;;;5.01;100.00;99340.13;5076322;28;20468;-35
2022/11/22 09:05:31;;;;;;;6.47;1.80;;;;;;;4.97;100.00;99328.25;5077017;28;20036;-35
2022/11/22 09:07:58;;;;;;;6.63;2.30;;;;;;;5.05;100.00;99344.00;5076839;28;20048;-39
2022/11/22 09:10:23;;;;;;;6.90;1.90;;;;;;;5.08;100.00;99352.38;5076442;28;20388;-35
2022/11/22 09:12:49;;;;;;;9.07;2.63;;;;;;;5.09;100.00;99339.81;5076475;28;20032;-36
2022/11/22 09:15:15;;;;;;;7.75;1.55;;;;;;;5.16;100.00;99353.91;5076198;28;20047;-35
2022/11/22 09:17:41;;;;;;;7.25;2.10;;;;;;;5.18;100.00;99359.84;5075319;28;20093;-35
2022/11/22 09:20:07;;;;;;;;;;;;;;;5.22;100.00;99357.50;5076209;28;20036;-35
2022/11/22 09:22:32;;;;;;;5.35;1.75;;;;;;;5.23;100.00;99359.97;5076908;28;19920;-35
2022/11/22 09:24:57;;;;;;;7.80;2.30;;;;;;;5.27;100.00;99366.50;5075883;28;20028;-35
2022/11/22 09:27:23;;;;;;;10.90;2.93;;;;;;;5.31;100.00;99356.13;5076620;28;20094;-35
2022/11/22 09:29:48;;;;;;;9.00;3.00;;;;;;;5.28;100.00;99352.06;5076754;28;20071;-35
2022/11/22 09:32:13;;;;;;;8.97;2.63;;;;;;;5.36;100.00;99354.34;5076261;28;20025;-35
2022/11/22 09:34:39;;;;;;;7.07;1.80;;;;;;;5.37;100.00;99360.56;5075946;28;20540;-35
2022/11/22 09:37:04;;;;;;;6.53;1.80;;;;;;;5.40;100.00;99358.22;5076250;28;20508;-35
2022/11/22 09:39:29;;;;;;;11.47;2.47;;;;;;;5.44;100.00;99355.88;5076483;28;20071;-35
2022/11/22 09:42:14;;;;;;;7.13;2.00;;;;;;;5.50;100.00;99356.81;5075781;28;20029;-35
2022/11/22 09:44:45;;;;;;;7.32;1.80;;;;;;;5.54;100.00;99352.63;5076306;28;20682;-35
2022/11/22 09:47:32;;;;;;;6.13;1.70;;;;;;;5.59;100.00;99352.72;5076455;28;20119;-35
2022/11/22 09:50:15;;;;;;;4.60;1.63;;;;;;;5.60;100.00;99360.53;5075981;28;20042;-35
2022/11/22 09:52:52;;;;;;;4.57;1.38;;;;;;;5.65;100.00;99351.78;5075904;28;20017;-35
2022/11/22 09:55:23;;;;;;;5.90;1.60;;;;;;;5.67;100.00;99353.19;5074252;28;20032;-35
2022/11/22 09:57:59;;;;;;;5.38;1.70;;;;;;;5.69;100.00;99353.75;5075346;28;20482;-35
2022/11/22 10:00:28;;;;;;;5.97;1.35;;;;;;;5.70;100.00;99351.91;5075620;28;20099;-35
2022/11/22 10:03:10;;;;;;;4.13;1.60;;;;;;;5.71;100.00;99348.19;5074772;28;20327;-35
2022/11/22 10:05:50;;;;;;;6.45;1.58;;;;;;;5.79;100.00;99361.22;5075567;28;20104;-35
2022/11/22 10:08:21;;;;;;;5.50;1.73;;;;;;;5.82;100.00;99362.63;5073617;28;20426;-35
2022/11/22 10:10:52;;;;;;;8.75;2.05;;;;;;;5.79;100.00;99360.41;5075196;28;20101;-35
2022/11/22 10:13:40;;;;;;;4.72;1.45;;;;;;;5.86;100.00;99367.28;5075389;28;20056;-35
2022/11/22 10:16:42;;;;;;;8.23;1.85;;;;;;;5.85;100.00;99362.94;5075289;28;20025;-35
2022/11/22 10:19:15;;;;;;;7.65;2.30;;;;;;;5.89;100.00;99369.47;5074774;28;20025;-35
2022/11/22 10:21:42;;;;;;;6.93;1.95;;;;;;;5.86;100.00;99363.78;5075175;28;20417;-35
2022/11/22 10:24:13;;;;;;;6.75;1.50;;;;;;;5.87;100.00;99357.38;5075215;28;20036;-35
2022/11/22 10:26:39;;;;;;;4.80;1.70;;;;;;;5.85;100.00;99357.59;5074584;28;20032;-35
2022/11/22 10:29:07;;;;;;;4.40;1.50;;;;;;;5.88;100.00;99349.06;5075171;28;20052;-35
2022/11/22 10:32:13;;;;;;;3.45;1.38;;;;;;;5.93;100.00;99348.41;5074477;28;20036;-35
2022/11/22 10:34:53;;;;;;;6.00;1.40;;;;;;;5.98;100.00;99355.72;5074966;28;20100;-35
2022/11/22 10:37:21;;;;;;;4.28;1.40;;;;;;;5.99;100.00;99346.63;5074978;28;20024;-35
2022/11/22 10:39:52;;;;;;;3.58;1.65;;;;;;;6.02;100.00;99332.75;5074335;28;20033;-35
2022/11/22 10:42:29;;;;;;;5.88;1.58;;;;;;;6.02;100.00;99340.78;5074900;28;20020;-35
2022/11/22 10:45:18;;;;;;;6.75;3.17;;;;;;;6.03;100.00;99339.75;5074574;28;20054;-35
2022/11/22 10:48:09;;;;;;;5.07;2.45;;;;;;;6.04;100.00;99344.84;5074564;28;20025;-35
2022/11/22 10:51:20;;;;;;;4.00;1.73;;;;;;;6.07;100.00;99338.22;5015578;28;20445;-35
2022/11/22 10:54:07;;;;;;;5.00;1.90;;;;;;;6.02;100.00;99330.06;4954060;29;20051;-35
2022/11/22 10:56:49;;;;;;;3.35;1.63;;;;;;;6.08;100.00;99332.59;4954401;29;20051;-35
2022/11/22 10:59:53;;;;;;;6.22;1.52;;;;;;;6.11;100.00;99328.63;4953942;29;20437;-35
2022/11/22 11:02:48;;;;;;;4.47;1.77;;;;;;;6.05;100.00;99319.69;4954229;29;20476;-35
2022/11/22 11:05:19;;;;;;;4.28;1.70;;;;;;;6.08;100.00;99307.63;4954336;29;20385;-35
2022/11/22 11:07:49;;;;;;;2.60;1.15;;;;;;;6.17;100.00;99322.31;4953970;29;20058;-35
2022/11/22 11:10:18;;;;;;;2.92;1.20;;;;;;;6.18;100.00;99324.75;4954366;29;20396;-35
2022/11/22 11:12:48;;;;;;;4.85;1.50;;;;;;;6.22;100.00;99313.53;4953650;29;20039;-35
2022/11/22 11:15:20;;;;;;;4.40;1.50;;;;;;;6.25;100.00;99313.88;4953350;28;20467;-35
2022/11/22 11:17:52;;;;;;;2.80;1.45;;;;;;;6.30;100.00;99305.91;4954324;29;20106;-35
2022/11/22 11:20:25;;;;;;;3.42;1.35;;;;;;;6.33;100.00;99304.59;4953553;29;20102;-35
2022/11/22 11:22:50;;;;;;;3.05;1.33;;;;;;;6.31;100.00;99298.69;4953612;29;20059;-35
2022/11/22 11:25:39;;;;;;;3.23;1.40;;;;;;;6.37;100.00;99300.41;4953450;29;20184;-35
2022/11/22 11:28:25;;;;;;;3.33;1.10;;;;;;;6.40;100.00;99294.56;4998511;28;20125;-35
2022/11/22 11:30:58;;;;;;;2.10;1.00;;;;;;;6.40;100.00;99297.25;5073338;28;20299;-33
2022/11/22 11:33:29;;;;;;;2.95;1.15;;;;;;;6.40;100.00;99289.19;5074342;28;20644;-35
2022/11/22 11:36:01;;;;;;;3.67;1.10;;;;;;;6.40;100.00;99289.19;5072241;28;20028;-33
2022/11/22 11:38:33;;;;;;;4.15;1.38;;;;;;;6.42;100.00;99284.38;5074024;28;20150;-34
2022/11/22 11:41:21;;;;;;;3.53;1.05;;;;;;;6.42;100.00;99285.19;5073593;28;20024;-34
2022/11/22 11:43:48;;;;;;;3.25;1.10;;;;;;;6.45;100.00;99289.28;5073890;28;20032;-35
2022/11/22 11:46:25;;;;;;;2.10;0.82;;;;;;;6.47;100.00;99295.22;5073490;28;20035;-35
2022/11/22 11:49:07;;;;;;;2.55;1.00;;;;;;;6.49;100.00;99284.22;5073289;28;20043;-35
2022/11/22 11:51:47;;;;;;;2.00;0.77;;;;;;;6.48;100.00;99293.34;5073208;28;20048;-35
2022/11/22 11:54:21;;;;;;;2.50;1.30;;;;;;;6.48;100.00;99285.28;5073692;28;20526;-35